• Join FlightAware (Why Join?)
  • Login
  • US Flag 
03:22AM EDT


 

Airport Tracker/Info


-or-


 

Live Flight TrackerFlight Track Log ✈ JBU1522 ✈ 29-Jun-2013 ✈ KLGB - KPDX

Flight Track Log - Related Links

Times and Time Zones

All times are in EDT time to prevent confusion due to time zone crossing. See the JBU1522 flight status page for this flight to view local times or setup timezone preferences in your user account.

Time Position Orientation Groundspeed Altitude Reporting Facility
EDT Latitude Longitude Course Direction KTS MPH feet Rate Location/Type
01:19PM 33.8333 -118.2167 338° Northwest 188 216 2,300  Level Southern California TRACON
01:20PM 33.8392 -118.2747 277° West 226 260 3,300 1,740 Climbing Los Angeles Center
01:21PM 34.0071 -118.4619 337° Northwest  Level FlightAware Approximate
01:21PM 33.8547 -118.3522 284° West 239 275 5,800  Level Los Angeles Center
01:22PM 34.1169 -118.5096 335° Northwest  Level FlightAware Approximate
01:22PM 33.8794 -118.4547 286° West 264 304 7,500  Level Los Angeles Center
01:23PM 34.2241 -118.5741 320° Northwest  Level FlightAware Approximate
01:23PM 33.9378 -118.5289 313° West 301 346 10,200  Level Los Angeles Center
01:24PM 34.3303 -118.6235 338° Northwest  Level FlightAware Approximate
01:24PM 34.0214 -118.5608 342° North 313 360 12,500  Level Los Angeles Center
01:25PM 34.1061 -118.5944 342° North 326 375 14,300 1,380 Climbing Los Angeles Center
01:26PM 34.1992 -118.6300 342° North 343 395 15,400 780 Climbing Los Angeles Center
01:27PM 34.3064 -118.6708 343° North 390 449 16,000 240 Climbing Los Angeles Center
01:28PM 34.4436 -118.7222 343° North 427 491 16,000 420 Level Los Angeles Center
01:29PM 34.5572 -118.7653 343° North 428 493 16,900 1,680 Climbing Los Angeles Center
01:30PM 34.6703 -118.8111 342° North 429 494 19,500 2,040 Climbing Los Angeles Center
01:31PM 34.7814 -118.8539 342° North 422 486 21,200 1,380 Climbing Los Angeles Center
01:32PM 34.9050 -118.8975 344° North 430 495 22,400 840 Climbing Los Angeles Center
01:33PM 35.0242 -118.9378 345° North 442 509 23,000 660 Climbing Los Angeles Center
01:34PM 35.1417 -118.9778 344° North 441 507 23,800 960 Climbing Los Angeles Center
01:35PM 35.2875 -119.0278 344° North 456 525 25,100 1,200 Climbing Los Angeles Center
01:36PM 35.4125 -119.0714 344° North 464 534 26,400 1,140 Climbing Los Angeles Center
01:37PM 35.5353 -119.1194 342° North 465 535 27,600 1,080 Climbing Los Angeles Center
01:38PM 35.6550 -119.1822 337° Northwest 468 539 28,700 1,020 Climbing Los Angeles Center
01:39PM 35.7767 -119.2428 338° Northwest 471 542 29,700 1,260 Climbing Los Angeles Center
01:40PM 35.9286 -119.2972 344° North 475 547 31,400 1,440 Climbing Los Angeles Center
01:41PM 36.0514 -119.3425 343° North 468 539 32,800 1,200 Climbing Los Angeles Center
01:43PM 36.1733 -119.3864 344° North 460 529 34,000 960 Climbing Los Angeles Center
01:44PM 36.2933 -119.4297 344° North 454 522 34,900 840 Climbing Los Angeles Center
01:45PM 36.4369 -119.4794 344° North 455 524 35,900 480 Climbing Oakland Center
01:46PM 36.5561 -119.5222 344° North 450 518 36,000  Climbing Oakland Center
01:47PM 36.6758 -119.5658 344° North 450 518 36,000  Level Oakland Center
01:48PM 36.7967 -119.6097 344° North 452 520 36,000  Level Oakland Center
01:49PM 36.9175 -119.6519 344° North 452 520 36,000  Level Oakland Center
01:50PM 37.0631 -119.7056 344° North 454 522 36,000  Level Oakland Center
01:51PM 37.1847 -119.7508 343° North 457 526 36,000  Level Oakland Center
01:52PM 37.3061 -119.7958 344° North 456 525 36,000  Level Oakland Center
01:53PM 37.4317 -119.8428 343° North 456 525 36,000  Level Oakland Center
01:54PM 37.5550 -119.8875 344° North 459 528 36,000  Level Oakland Center
01:55PM 37.6778 -119.9342 343° North 459 528 36,000  Level Oakland Center
01:56PM 37.7983 -119.9794 343° North 455 524 36,000  Level Oakland Center
01:57PM 37.9186 -120.0250 343° North 453 521 36,000  Level Oakland Center
01:58PM 38.0653 -120.0803 343° North 456 525 36,000  Level Oakland Center
01:59PM 38.1853 -120.1253 344° North 452 520 36,000  Level Oakland Center
02:00PM 38.3083 -120.1722 343° North 461 531 36,000  Level Oakland Center
02:01PM 38.4300 -120.2189 343° North 459 528 36,000  Level Oakland Center
02:02PM 38.5519 -120.2658 343° North 459 528 36,000  Level Oakland Center
02:03PM 38.6739 -120.3122 343° North 458 527 36,000  Level Oakland Center
02:04PM 38.7958 -120.3603 343° North 460 529 36,000  Level Oakland Center
02:05PM 38.9428 -120.4164 343° North 462 532 36,000  Level Oakland Center
02:06PM 39.0656 -120.4642 343° North 462 532 36,000  Level Oakland Center
02:07PM 39.1869 -120.5119 343° North 459 528 36,000  Level Oakland Center
02:08PM 39.3094 -120.5600 343° North 460 529 36,000  Level Oakland Center
02:09PM 39.4300 -120.6083 343° North 456 525 36,000  Level Oakland Center
02:10PM 39.5519 -120.6553 343° North 458 527 36,000  Level Oakland Center
02:11PM 39.6981 -120.7136 343° North 457 526 36,000  Level Oakland Center
02:12PM 39.8194 -120.7639 342° North 457 526 36,000  Level Oakland Center
02:13PM 39.9403 -120.8117 343° North 456 525 36,000  Level Oakland Center
02:14PM 40.0725 -120.8636 343° North 461 531 36,000  Level Oakland Center
02:16PM 40.1947 -120.9131 343° North 462 532 36,000  Level Oakland Center
02:17PM 40.3181 -120.9631 343° North 465 535 36,000  Level Oakland Center
02:18PM 40.4400 -121.0122 343° North 461 531 36,000  Level Oakland Center
02:19PM 40.5653 -121.0650 342° North 464 534 36,000  Level Oakland Center
02:20PM 40.6944 -121.1142 344° North 474 545 36,000  Level Seattle Center
02:21PM 40.8186 -121.1658 343° North 470 541 36,000  Level Seattle Center
02:22PM 40.9617 -121.2331 340° North 470 541 36,000  Level Oakland Center
02:23PM 41.0894 -121.2925 341° North 472 543 36,000  Level Oakland Center
02:24PM 41.2119 -121.3483 341° North 469 540 36,000  Level Oakland Center
02:25PM 41.3358 -121.4056 341° North 471 542 36,000  Level Oakland Center
02:26PM 41.4375 -121.4500 342° North 473 544 36,000  Level Seattle Center
02:27PM 41.5611 -121.5064 341° North 470 541 36,000  Level Seattle Center
02:28PM 41.7094 -121.5744 341° North 471 542 36,000  Level Seattle Center
02:29PM 41.8342 -121.6328 341° North 478 550 36,000  Level Seattle Center
02:30PM 41.9586 -121.6906 341° North 477 549 36,000  Level Seattle Center
02:31PM 42.0814 -121.7450 342° North 473 544 36,000  Level Seattle Center
02:32PM 42.2022 -121.8042 340° North 473 544 36,000  Level Seattle Center
02:33PM 42.3256 -121.8617 341° North 475 547 36,000  Level Seattle Center
02:34PM 42.4481 -121.9203 341° North 472 543 36,000  Level Seattle Center
02:35PM 42.5925 -121.9900 340° North 463 533 36,000  Level Seattle Center
02:36PM 42.7136 -122.0478 341° North 461 531 36,000  Level Seattle Center
02:37PM 42.8339 -122.1069 340° North 460 529 36,000  Level Seattle Center
02:38PM 42.9550 -122.1653 341° North 460 529 36,000  Level Seattle Center
02:39PM 43.0767 -122.2244 340° North 462 532 36,000  Level Seattle Center
02:40PM 43.2003 -122.2769 343° North 464 534 36,000  Level Seattle Center
02:41PM 43.3208 -122.3400 339° North 466 536 36,000  Level Seattle Center
02:42PM 43.4417 -122.3989 341° North 461 531 36,000 -300 Level Seattle Center
02:43PM 43.5647 -122.4611 340° North 466 536 35,400 -840 Descending Seattle Center
02:44PM 43.6908 -122.5075 345° North 468 539 34,400 -1,020 Descending Seattle Center
02:45PM 43.8242 -122.5225 355° North 480 552 33,400 -1,680 Descending Seattle Center
02:46PM 43.9867 -122.5433 355° North 488 562 31,100 -2,280 Descending Seattle Center
02:47PM 44.1181 -122.5603 355° North 479 551 28,800 -2,220 Descending Seattle Center
02:48PM 44.2478 -122.5764 355° North 473 544 26,600 -2,280 Descending Seattle Center
02:49PM 44.3756 -122.5933 355° North 466 536 24,200 -2,340 Descending Seattle Center
02:50PM 44.5033 -122.6103 355° North 465 535 21,900 -2,400 Descending Seattle Center
02:51PM 44.6264 -122.6264 355° North 452 520 19,400 -2,220 Descending Seattle Center
02:52PM 44.7456 -122.6425 355° North 436 502 17,400 -2,460 Descending Seattle Center
02:53PM 44.8478 -122.6583 354° North 416 479 15,100 -3,120 Descending Seattle Center
02:54PM 44.9483 -122.6728 354° North 389 448 12,200 -2,700 Descending Seattle Center
02:55PM 45.0508 -122.6650 North 357 411 10,000 -1,800 Descending Seattle Center
02:56PM 45.1356 -122.6553 North 297 342 8,600 -1,380 Descending Seattle Center
02:57PM 45.2103 -122.6189 19° North 293 337 7,300 -1,020 Descending Seattle Center
02:58PM 45.2822 -122.5558 32° Northeast 285 328 6,600 -1,140 Descending Seattle Center
02:59PM 45.3478 -122.4953 33° Northeast 278 320 5,100 -1,260 Descending Seattle Center
03:00PM 45.4150 -122.4308 34° Northeast 270 311 4,000 -540 Descending Seattle Center
03:01PM 45.4753 -122.3753 33° Northeast 266 306 4,000 -840 Level Seattle Center
03:02PM 45.5317 -122.4289 326° Northwest 252 290 2,300 -1,500 Descending Seattle Center
03:03PM 45.5567 -122.4989 297° West 204 235 1,200 -1,020 Descending Seattle Center
03:04PM 45.5794 -122.5575 299° West 133 153 300 -840 Descending Seattle Center